Time,TemperatureF,DewpointF,PressureIn,WindDirection,WindDirectionDegrees,WindSpeedMPH,WindSpeedGustMPH,Humidity,HourlyPrecipIn,Conditions,Clouds,dailyrainin,SoftwareType,DateUTC
2013-10-24 00:03:00,68.8,28.4,29.80,ESE,110,0.0,0.0,22,0.00,,,0.00,Wunderground v.1.15,2013-10-24 07:03:00,
2013-10-24 00:08:00,68.6,28.2,29.80,ESE,110,0.0,0.0,22,0.00,,,0.00,Wunderground v.1.15,2013-10-24 07:08:00,
2013-10-24 00:13:00,68.3,28.0,29.80,ESE,110,0.0,0.0,22,0.00,,,0.00,Wunderground v.1.15,2013-10-24 07:13:00,
2013-10-24 00:18:00,67.6,40.4,29.80,NNW,328,0.0,1.0,37,0.00,,,0.00,Wunderground v.1.15,2013-10-24 07:18:00,
2013-10-24 00:23:00,65.1,36.8,29.80,NNW,328,0.0,0.0,35,0.00,,,0.00,Wunderground v.1.15,2013-10-24 07:23:00,
2013-10-24 00:28:00,64.9,29.2,29.80,ESE,110,1.0,1.0,26,0.00,,,0.00,Wunderground v.1.15,2013-10-24 07:28:00,
2013-10-24 00:33:00,66.0,28.1,29.80,ESE,110,1.0,2.0,24,0.00,,,0.00,Wunderground v.1.15,2013-10-24 07:33:00,
2013-10-24 00:38:00,67.2,27.0,29.80,ESE,113,0.0,2.0,22,0.00,,,0.00,Wunderground v.1.15,2013-10-24 07:38:00,
2013-10-24 00:43:00,67.6,27.4,29.80,ESE,108,0.0,1.0,22,0.00,,,0.00,Wunderground v.1.15,2013-10-24 07:43:00,
2013-10-24 00:48:00,67.5,27.3,29.79,ESE,108,0.0,2.0,22,0.00,,,0.00,Wunderground v.1.15,2013-10-24 07:48:00,
2013-10-24 00:54:00,66.9,26.8,29.79,ESE,109,0.0,0.0,22,0.00,,,0.00,Wunderground v.1.15,2013-10-24 07:54:00,
2013-10-24 00:59:00,66.4,26.4,29.80,ESE,107,0.0,0.0,22,0.00,,,0.00,Wunderground v.1.15,2013-10-24 07:59:00,
2013-10-24 01:04:00,66.1,25.0,29.80,ESE,111,1.0,1.0,21,0.00,,,0.00,Wunderground v.1.15,2013-10-24 08:04:00,
2013-10-24 01:09:00,66.1,25.0,29.80,ESE,110,2.0,2.0,21,0.00,,,0.00,Wunderground v.1.15,2013-10-24 08:09:00,
2013-10-24 01:14:00,66.0,24.9,29.80,ESE,117,1.0,2.0,21,0.00,,,0.00,Wunderground v.1.15,2013-10-24 08:14:00,
2013-10-24 01:19:00,66.1,25.0,29.80,East,96,0.0,2.0,21,0.00,,,0.00,Wunderground v.1.15,2013-10-24 08:19:00,
2013-10-24 01:24:00,65.7,25.8,29.80,East,95,0.0,1.0,22,0.00,,,0.00,Wunderground v.1.15,2013-10-24 08:24:00,
2013-10-24 01:29:00,65.5,25.6,29.81,East,96,0.0,1.0,22,0.00,,,0.00,Wunderground v.1.15,2013-10-24 08:29:00,
2013-10-24 01:34:00,65.2,25.4,29.81,East,98,0.0,0.0,22,0.00,,,0.00,Wunderground v.1.15,2013-10-24 08:34:00,
2013-10-24 01:39:00,65.4,25.5,29.81,East,98,0.0,0.0,22,0.00,,,0.00,Wunderground v.1.15,2013-10-24 08:39:00,
2013-10-24 01:44:00,65.5,25.6,29.81,ESE,107,0.0,0.0,22,0.00,,,0.00,Wunderground v.1.15,2013-10-24 08:44:00,
2013-10-24 01:49:00,65.2,25.4,29.81,ESE,107,0.0,0.0,22,0.00,,,0.00,Wunderground v.1.15,2013-10-24 08:49:00,
2013-10-24 01:55:00,64.2,32.9,29.81,North,1,0.0,1.0,31,0.00,,,0.00,Wunderground v.1.15,2013-10-24 08:55:00,
2013-10-24 02:00:00,60.8,33.0,29.81,North,3,0.0,0.0,35,0.00,,,0.00,Wunderground v.1.15,2013-10-24 09:00:00,
2013-10-24 02:05:00,59.4,36.3,29.81,North,4,0.0,1.0,42,0.00,,,0.00,Wunderground v.1.15,2013-10-24 09:05:00,
2013-10-24 02:10:00,58.6,33.0,29.81,ENE,65,0.0,0.0,38,0.00,,,0.00,Wunderground v.1.15,2013-10-24 09:10:00,
2013-10-24 02:15:00,58.5,33.0,29.81,ENE,65,0.0,0.0,38,0.00,,,0.00,Wunderground v.1.15,2013-10-24 09:15:00,
2013-10-24 02:20:00,58.7,33.1,29.81,ENE,65,0.0,0.0,38,0.00,,,0.00,Wunderground v.1.15,2013-10-24 09:20:00,
2013-10-24 02:25:00,58.8,32.6,29.81,ENE,65,0.0,0.0,37,0.00,,,0.00,Wunderground v.1.15,2013-10-24 09:25:00,
2013-10-24 02:30:00,58.7,31.8,29.81,ENE,65,0.0,0.0,36,0.00,,,0.00,Wunderground v.1.15,2013-10-24 09:30:00,
2013-10-24 02:35:00,59.2,31.5,29.81,ENE,65,0.0,1.0,35,0.00,,,0.00,Wunderground v.1.15,2013-10-24 09:35:00,
2013-10-24 02:40:00,59.9,31.4,29.81,ENE,73,0.0,0.0,34,0.00,,,0.00,Wunderground v.1.15,2013-10-24 09:40:00,
2013-10-24 02:45:00,60.3,31.0,29.81,ENE,73,0.0,0.0,33,0.00,,,0.00,Wunderground v.1.15,2013-10-24 09:45:00,
2013-10-24 02:50:00,60.5,31.2,29.81,ENE,73,0.0,0.0,33,0.00,,,0.00,Wunderground v.1.15,2013-10-24 09:50:00,
2013-10-24 02:55:00,60.3,31.8,29.81,ENE,73,0.0,0.0,34,0.00,,,0.00,Wunderground v.1.15,2013-10-24 09:55:00,
2013-10-24 03:00:00,59.7,32.0,29.81,ENE,73,0.0,0.0,35,0.00,,,0.00,Wunderground v.1.15,2013-10-24 10:00:00,
2013-10-24 03:05:00,59.1,31.4,29.81,ENE,73,0.0,1.0,35,0.00,,,0.00,Wunderground v.1.15,2013-10-24 10:05:00,
2013-10-24 03:10:00,58.9,30.6,29.81,ENE,73,0.0,0.0,34,0.00,,,0.00,Wunderground v.1.15,2013-10-24 10:10:00,
2013-10-24 03:15:00,58.8,29.7,29.81,ENE,74,0.0,0.0,33,0.00,,,0.00,Wunderground v.1.15,2013-10-24 10:15:00,
2013-10-24 03:20:00,58.2,28.5,29.81,ENE,74,0.0,0.0,32,0.00,,,0.00,Wunderground v.1.15,2013-10-24 10:20:00,
2013-10-24 03:25:00,57.5,30.0,29.81,ENE,73,0.0,0.0,35,0.00,,,0.00,Wunderground v.1.15,2013-10-24 10:25:00,
2013-10-24 03:30:00,56.7,30.7,29.81,ENE,73,0.0,0.0,37,0.00,,,0.00,Wunderground v.1.15,2013-10-24 10:30:00,
2013-10-24 03:35:00,56.7,31.4,29.81,ENE,73,0.0,0.0,38,0.00,,,0.00,Wunderground v.1.15,2013-10-24 10:35:00,
2013-10-24 03:40:00,56.8,30.1,29.81,ENE,74,0.0,0.0,36,0.00,,,0.00,Wunderground v.1.15,2013-10-24 10:40:00,
2013-10-24 03:45:00,56.7,27.9,29.81,ENE,74,0.0,0.0,33,0.00,,,0.00,Wunderground v.1.15,2013-10-24 10:45:00,
2013-10-24 03:50:00,56.8,28.0,29.81,East,96,0.0,0.0,33,0.00,,,0.00,Wunderground v.1.15,2013-10-24 10:50:00,
2013-10-24 03:55:00,57.0,27.4,29.81,East,96,0.0,0.0,32,0.00,,,0.00,Wunderground v.1.15,2013-10-24 10:55:00,
2013-10-24 04:01:00,57.0,28.1,29.81,East,96,0.0,0.0,33,0.00,,,0.00,Wunderground v.1.15,2013-10-24 11:01:00,
2013-10-24 04:06:00,57.1,27.5,29.81,East,96,0.0,0.0,32,0.00,,,0.00,Wunderground v.1.15,2013-10-24 11:06:00,
2013-10-24 04:11:00,57.4,28.5,29.81,ESE,113,0.0,1.0,33,0.00,,,0.00,Wunderground v.1.15,2013-10-24 11:11:00,
2013-10-24 04:16:00,57.4,27.0,29.81,SE,127,0.0,1.0,31,0.00,,,0.00,Wunderground v.1.15,2013-10-24 11:16:00,
2013-10-24 04:21:00,57.9,27.4,29.82,SE,127,0.0,1.0,31,0.00,,,0.00,Wunderground v.1.15,2013-10-24 11:21:00,
2013-10-24 04:26:00,58.1,26.8,29.82,SE,129,1.0,1.0,30,0.00,,,0.00,Wunderground v.1.15,2013-10-24 11:26:00,
2013-10-24 04:31:00,58.6,27.2,29.82,ESE,114,0.0,1.0,30,0.00,,,0.00,Wunderground v.1.15,2013-10-24 11:31:00,
2013-10-24 04:36:00,58.9,26.7,29.82,ESE,113,0.0,1.0,29,0.00,,,0.00,Wunderground v.1.15,2013-10-24 11:36:00,
2013-10-24 04:41:00,58.9,26.7,29.82,ESE,121,0.0,1.0,29,0.00,,,0.00,Wunderground v.1.15,2013-10-24 11:41:00,
2013-10-24 04:46:00,58.7,26.5,29.82,ESE,121,0.0,1.0,29,0.00,,,0.00,Wunderground v.1.15,2013-10-24 11:46:00,
2013-10-24 04:51:00,59.0,27.6,29.82,South,176,0.0,0.0,30,0.00,,,0.00,Wunderground v.1.15,2013-10-24 11:51:00,
2013-10-24 04:56:00,59.7,27.4,29.82,SE,131,0.0,1.0,29,0.00,,,0.00,Wunderground v.1.15,2013-10-24 11:56:00,
2013-10-24 05:01:00,61.1,27.7,29.83,SE,131,0.0,0.0,28,0.00,,,0.00,Wunderground v.1.15,2013-10-24 12:01:00,
2013-10-24 05:06:00,61.1,27.7,29.82,SE,126,0.0,0.0,28,0.00,,,0.00,Wunderground v.1.15,2013-10-24 12:06:00,
2013-10-24 05:11:00,59.6,27.3,29.83,ESE,120,1.0,2.0,29,0.00,,,0.00,Wunderground v.1.15,2013-10-24 12:11:00,
2013-10-24 05:16:00,59.0,26.8,29.83,ESE,113,0.0,2.0,29,0.00,,,0.00,Wunderground v.1.15,2013-10-24 12:16:00,
2013-10-24 05:21:00,58.4,27.1,29.83,ESE,117,1.0,1.0,30,0.00,,,0.00,Wunderground v.1.15,2013-10-24 12:21:00,
2013-10-24 05:26:00,58.0,26.7,29.83,ESE,112,0.0,2.0,30,0.00,,,0.00,Wunderground v.1.15,2013-10-24 12:26:00,
2013-10-24 05:31:00,57.5,26.3,29.83,ESE,114,1.0,2.0,30,0.00,,,0.00,Wunderground v.1.15,2013-10-24 12:31:00,
2013-10-24 05:36:00,57.4,27.0,29.83,ESE,115,0.0,2.0,31,0.00,,,0.00,Wunderground v.1.15,2013-10-24 12:36:00,
2013-10-24 05:41:00,57.2,26.0,29.83,SE,132,1.0,1.0,30,0.00,,,0.00,Wunderground v.1.15,2013-10-24 12:41:00,
2013-10-24 05:46:00,57.4,26.2,29.83,SE,134,1.0,2.0,30,0.00,,,0.00,Wunderground v.1.15,2013-10-24 12:46:00,
2013-10-24 05:51:00,57.4,26.2,29.83,ESE,120,0.0,1.0,30,0.00,,,0.00,Wunderground v.1.15,2013-10-24 12:51:00,
2013-10-24 05:56:00,57.0,26.6,29.83,ESE,115,0.0,1.0,31,0.00,,,0.00,Wunderground v.1.15,2013-10-24 12:56:00,
2013-10-24 06:01:00,56.7,25.6,29.83,ESE,107,2.0,2.0,30,0.00,,,0.00,Wunderground v.1.15,2013-10-24 13:01:00,
2013-10-24 06:06:00,56.8,25.7,29.83,ESE,115,1.0,3.0,30,0.00,,,0.00,Wunderground v.1.15,2013-10-24 13:06:00,
2013-10-24 06:11:00,56.7,26.4,29.83,ESE,115,0.0,1.0,31,0.00,,,0.00,Wunderground v.1.15,2013-10-24 13:11:00,
2013-10-24 06:16:00,56.4,26.1,29.84,ESE,110,0.0,1.0,31,0.00,,,0.00,Wunderground v.1.15,2013-10-24 13:16:00,
2013-10-24 06:21:00,56.1,25.8,29.84,ESE,112,1.0,1.0,31,0.00,,,0.00,Wunderground v.1.15,2013-10-24 13:21:00,
2013-10-24 06:26:00,55.9,25.7,29.84,ESE,114,1.0,1.0,31,0.00,,,0.00,Wunderground v.1.15,2013-10-24 13:26:00,
2013-10-24 06:31:00,56.0,25.8,29.84,ESE,115,0.0,1.0,31,0.00,,,0.00,Wunderground v.1.15,2013-10-24 13:31:00,
2013-10-24 06:37:00,56.2,25.9,29.84,ESE,114,1.0,1.0,31,0.00,,,0.00,Wunderground v.1.15,2013-10-24 13:37:00,
2013-10-24 06:42:00,56.3,26.0,29.84,ESE,121,2.0,3.0,31,0.00,,,0.00,Wunderground v.1.15,2013-10-24 13:42:00,
2013-10-24 06:47:00,56.5,26.2,29.84,ESE,110,2.0,5.0,31,0.00,,,0.00,Wunderground v.1.15,2013-10-24 13:47:00,
2013-10-24 06:52:00,56.7,26.4,29.85,ESE,113,2.0,3.0,31,0.00,,,0.00,Wunderground v.1.15,2013-10-24 13:52:00,
2013-10-24 06:57:00,56.7,26.4,29.85,ESE,114,2.0,3.0,31,0.00,,,0.00,Wunderground v.1.15,2013-10-24 13:57:00,
2013-10-24 07:02:00,56.6,26.3,29.85,ESE,105,0.0,2.0,31,0.00,,,0.00,Wunderground v.1.15,2013-10-24 14:02:00,
2013-10-24 07:07:00,55.6,31.0,29.85,North,359,1.0,2.0,39,0.00,,,0.00,Wunderground v.1.15,2013-10-24 14:07:00,
2013-10-24 07:12:00,53.0,28.0,29.85,North,359,0.0,1.0,38,0.00,,,0.00,Wunderground v.1.15,2013-10-24 14:12:00,
2013-10-24 07:17:00,52.7,27.1,29.86,North,359,0.0,1.0,37,0.00,,,0.00,Wunderground v.1.15,2013-10-24 14:17:00,
2013-10-24 07:22:00,53.1,26.8,29.86,North,360,0.0,0.0,36,0.00,,,0.00,Wunderground v.1.15,2013-10-24 14:22:00,
2013-10-24 07:27:00,53.9,26.1,29.86,North,360,0.0,0.0,34,0.00,,,0.00,Wunderground v.1.15,2013-10-24 14:27:00,
2013-10-24 07:32:00,54.6,26.0,29.86,North,359,0.0,0.0,33,0.00,,,0.00,Wunderground v.1.15,2013-10-24 14:32:00,
2013-10-24 07:37:00,55.6,26.2,29.86,North,358,0.0,0.0,32,0.00,,,0.00,Wunderground v.1.15,2013-10-24 14:37:00,
2013-10-24 07:42:00,56.2,25.9,29.86,North,359,0.0,0.0,31,0.00,,,0.00,Wunderground v.1.15,2013-10-24 14:42:00,
2013-10-24 07:47:00,57.0,28.1,29.87,North,356,0.0,0.0,33,0.00,,,0.00,Wunderground v.1.15,2013-10-24 14:47:00,
2013-10-24 07:52:00,56.8,33.3,29.87,North,357,0.0,0.0,41,0.00,,,0.00,Wunderground v.1.15,2013-10-24 14:52:00,
2013-10-24 07:57:00,58.0,32.5,29.87,North,359,0.0,0.0,38,0.00,,,0.00,Wunderground v.1.15,2013-10-24 14:57:00,
2013-10-24 08:02:00,59.0,31.4,29.87,North,359,0.0,1.0,35,0.00,,,0.00,Wunderground v.1.15,2013-10-24 15:02:00,
2013-10-24 08:07:00,59.4,30.3,29.88,North,358,0.0,1.0,33,0.00,,,0.00,Wunderground v.1.15,2013-10-24 15:07:00,
2013-10-24 08:13:00,58.8,35.7,29.88,North,359,0.0,0.0,42,0.00,,,0.00,Wunderground v.1.15,2013-10-24 15:13:00,
2013-10-24 08:18:00,58.8,33.2,29.88,North,358,0.0,0.0,38,0.00,,,0.00,Wunderground v.1.15,2013-10-24 15:18:00,
2013-10-24 08:23:00,59.9,33.5,29.88,North,358,0.0,0.0,37,0.00,,,0.00,Wunderground v.1.15,2013-10-24 15:23:00,
2013-10-24 08:28:00,61.5,35.6,29.88,North,359,0.0,0.0,38,0.00,,,0.00,Wunderground v.1.15,2013-10-24 15:28:00,
2013-10-24 08:33:00,62.0,38.0,29.89,North,356,0.0,0.0,41,0.00,,,0.00,Wunderground v.1.15,2013-10-24 15:33:00,
2013-10-24 08:38:00,61.9,44.6,29.89,NNW,336,1.0,1.0,53,0.00,,,0.00,Wunderground v.1.15,2013-10-24 15:38:00,
2013-10-24 08:43:00,61.8,44.0,29.89,NNW,335,0.0,1.0,52,0.00,,,0.00,Wunderground v.1.15,2013-10-24 15:43:00,
2013-10-24 08:48:00,62.1,42.7,29.89,NNW,335,0.0,1.0,49,0.00,,,0.00,Wunderground v.1.15,2013-10-24 15:48:00,
2013-10-24 08:53:00,62.8,40.5,29.90,NNW,335,0.0,0.0,44,0.00,,,0.00,Wunderground v.1.15,2013-10-24 15:53:00,
2013-10-24 08:58:00,63.5,40.6,29.90,NNW,335,0.0,1.0,43,0.00,,,0.00,Wunderground v.1.15,2013-10-24 15:58:00,
2013-10-24 09:03:00,64.2,37.4,29.90,NNW,335,0.0,1.0,37,0.00,,,0.00,Wunderground v.1.15,2013-10-24 16:03:00,
2013-10-24 09:08:00,65.1,33.7,29.90,NNW,342,0.0,1.0,31,0.00,,,0.00,Wunderground v.1.15,2013-10-24 16:08:00,
2013-10-24 09:13:00,66.2,33.0,29.90,NNW,341,0.0,1.0,29,0.00,,,0.00,Wunderground v.1.15,2013-10-24 16:13:00,
2013-10-24 09:18:00,66.9,32.7,29.90,NNW,341,0.0,1.0,28,0.00,,,0.00,Wunderground v.1.15,2013-10-24 16:18:00,
2013-10-24 09:23:00,68.2,32.0,29.90,NE,41,0.0,1.0,26,0.00,,,0.00,Wunderground v.1.15,2013-10-24 16:23:00,
2013-10-24 09:28:00,69.9,31.4,29.90,NE,37,0.0,1.0,24,0.00,,,0.00,Wunderground v.1.15,2013-10-24 16:28:00,
2013-10-24 09:33:00,70.9,31.2,29.90,ENE,71,0.0,1.0,23,0.00,,,0.00,Wunderground v.1.15,2013-10-24 16:33:00,
2013-10-24 09:38:00,71.5,31.7,29.90,NNE,15,1.0,1.0,23,0.00,,,0.00,Wunderground v.1.15,2013-10-24 16:38:00,
2013-10-24 09:43:00,71.4,31.6,29.90,North,6,1.0,1.0,23,0.00,,,0.00,Wunderground v.1.15,2013-10-24 16:43:00,
2013-10-24 09:49:00,71.9,28.6,29.90,North,6,0.0,1.0,20,0.00,,,0.00,Wunderground v.1.15,2013-10-24 16:49:00,
2013-10-24 09:53:00,73.1,29.6,29.90,North,6,0.0,0.0,20,0.00,,,0.00,Wunderground v.1.15,2013-10-24 16:53:00,
2013-10-24 09:59:00,74.5,32.0,29.90,North,6,0.0,1.0,21,0.00,,,0.00,Wunderground v.1.15,2013-10-24 16:59:00,
2013-10-24 10:04:00,75.1,30.0,29.90,West,269,2.0,2.0,19,0.00,,,0.00,Wunderground v.1.15,2013-10-24 17:04:00,
2013-10-24 10:09:00,74.2,29.3,29.90,WNW,298,0.0,2.0,19,0.00,,,0.00,Wunderground v.1.15,2013-10-24 17:09:00,
2013-10-24 10:14:00,74.2,31.7,29.90,West,273,1.0,2.0,21,0.00,,,0.00,Wunderground v.1.15,2013-10-24 17:14:00,
2013-10-24 10:19:00,74.2,31.7,29.90,NW,311,0.0,2.0,21,0.00,,,0.00,Wunderground v.1.15,2013-10-24 17:19:00,
2013-10-24 10:24:00,73.9,32.6,29.90,WNW,300,2.0,3.0,22,0.00,,,0.00,Wunderground v.1.15,2013-10-24 17:24:00,
2013-10-24 10:29:00,74.0,32.7,29.90,WSW,245,1.0,3.0,22,0.00,,,0.00,Wunderground v.1.15,2013-10-24 17:29:00,
2013-10-24 10:34:00,74.5,33.1,29.90,West,271,0.0,2.0,22,0.00,,,0.00,Wunderground v.1.15,2013-10-24 17:34:00,
2013-10-24 10:39:00,75.6,34.1,29.90,West,271,0.0,2.0,22,0.00,,,0.00,Wunderground v.1.15,2013-10-24 17:39:00,
2013-10-24 10:44:00,76.8,33.9,29.90,WNW,287,0.0,0.0,21,0.00,,,0.00,Wunderground v.1.15,2013-10-24 17:44:00,
2013-10-24 10:49:00,77.0,34.1,29.90,WSW,253,1.0,2.0,21,0.00,,,0.00,Wunderground v.1.15,2013-10-24 17:49:00,
2013-10-24 10:54:00,76.9,34.0,29.89,WSW,250,1.0,2.0,21,0.00,,,0.00,Wunderground v.1.15,2013-10-24 17:54:00,
2013-10-24 10:59:00,77.1,31.6,29.90,WSW,256,0.0,2.0,19,0.00,,,0.00,Wunderground v.1.15,2013-10-24 17:59:00,
2013-10-24 11:04:00,78.0,33.7,29.90,NW,305,2.0,2.0,20,0.00,,,0.00,Wunderground v.1.15,2013-10-24 18:04:00,
2013-10-24 11:09:00,78.1,33.7,29.90,WNW,284,1.0,3.0,20,0.00,,,0.00,Wunderground v.1.15,2013-10-24 18:09:00,
2013-10-24 11:14:00,78.2,31.2,29.89,West,271,0.0,3.0,18,0.00,,,0.00,Wunderground v.1.15,2013-10-24 18:14:00,
2013-10-24 11:19:00,79.0,31.9,29.89,NNW,328,0.0,3.0,18,0.00,,,0.00,Wunderground v.1.15,2013-10-24 18:19:00,
2013-10-24 11:24:00,79.2,32.0,29.89,SW,231,0.0,2.0,18,0.00,,,0.00,Wunderground v.1.15,2013-10-24 18:24:00,
2013-10-24 11:29:00,79.7,35.1,29.89,South,188,0.0,2.0,20,0.00,,,0.00,Wunderground v.1.15,2013-10-24 18:29:00,
2013-10-24 11:35:00,79.9,32.6,29.89,WSW,240,0.0,4.0,18,0.00,,,0.00,Wunderground v.1.15,2013-10-24 18:35:00,
2013-10-24 11:40:00,80.4,31.6,29.89,North,352,0.0,1.0,17,0.00,,,0.00,Wunderground v.1.15,2013-10-24 18:40:00,
2013-10-24 11:45:00,80.6,33.2,29.89,NW,316,3.0,4.0,18,0.00,,,0.00,Wunderground v.1.15,2013-10-24 18:45:00,
2013-10-24 11:50:00,80.4,34.3,29.88,WNW,290,2.0,2.0,19,0.00,,,0.00,Wunderground v.1.15,2013-10-24 18:50:00,
2013-10-24 11:55:00,80.5,33.1,29.88,WSW,245,0.0,4.0,18,0.00,,,0.00,Wunderground v.1.15,2013-10-24 18:55:00,
2013-10-24 12:00:00,81.0,34.8,29.88,NNW,335,3.0,3.0,19,0.00,,,0.00,Wunderground v.1.15,2013-10-24 19:00:00,
2013-10-24 12:05:00,80.8,31.9,29.88,WNW,293,3.0,5.0,17,0.00,,,0.00,Wunderground v.1.15,2013-10-24 19:05:00,
2013-10-24 12:10:00,80.7,33.2,29.87,WNW,292,1.0,2.0,18,0.00,,,0.00,Wunderground v.1.15,2013-10-24 19:10:00,
2013-10-24 12:15:00,81.0,33.5,29.87,West,262,1.0,4.0,18,0.00,,,0.00,Wunderground v.1.15,2013-10-24 19:15:00,
2013-10-24 12:20:00,81.7,34.1,29.87,WNW,283,4.0,5.0,18,0.00,,,0.00,Wunderground v.1.15,2013-10-24 19:20:00,
2013-10-24 12:25:00,81.6,32.5,29.87,NW,305,2.0,5.0,17,0.00,,,0.00,Wunderground v.1.15,2013-10-24 19:25:00,
2013-10-24 12:31:00,82.1,32.9,29.87,SW,226,1.0,3.0,17,0.00,,,0.00,Wunderground v.1.15,2013-10-24 19:31:00,
2013-10-24 12:36:00,82.6,33.4,29.86,SW,233,1.0,4.0,17,0.00,,,0.00,Wunderground v.1.15,2013-10-24 19:36:00,
2013-10-24 12:41:00,82.6,31.8,29.86,WSW,239,2.0,5.0,16,0.00,,,0.00,Wunderground v.1.15,2013-10-24 19:41:00,
2013-10-24 12:46:00,82.9,35.0,29.86,SW,235,3.0,5.0,18,0.00,,,0.00,Wunderground v.1.15,2013-10-24 19:46:00,
2013-10-24 12:51:00,83.1,35.2,29.86,WNW,287,2.0,3.0,18,0.00,,,0.00,Wunderground v.1.15,2013-10-24 19:51:00,
2013-10-24 12:56:00,83.3,33.9,29.85,WSW,253,1.0,5.0,17,0.00,,,0.00,Wunderground v.1.15,2013-10-24 19:56:00,
2013-10-24 13:01:00,83.5,35.5,29.85,WNW,288,1.0,3.0,18,0.00,,,0.00,Wunderground v.1.15,2013-10-24 20:01:00,
2013-10-24 13:06:00,84.1,36.0,29.85,West,263,1.0,3.0,18,0.00,,,0.00,Wunderground v.1.15,2013-10-24 20:06:00,
2013-10-24 13:11:00,84.3,37.5,29.85,WNW,295,3.0,4.0,19,0.00,,,0.00,Wunderground v.1.15,2013-10-24 20:11:00,
2013-10-24 13:16:00,83.9,37.2,29.85,WSW,246,1.0,8.0,19,0.00,,,0.00,Wunderground v.1.15,2013-10-24 20:16:00,
2013-10-24 13:21:00,83.9,38.5,29.85,WSW,252,5.0,5.0,20,0.00,,,0.00,Wunderground v.1.15,2013-10-24 20:21:00,
2013-10-24 13:26:00,84.0,38.6,29.84,West,264,5.0,7.0,20,0.00,,,0.00,Wunderground v.1.15,2013-10-24 20:26:00,
2013-10-24 13:31:00,84.1,36.0,29.84,West,281,4.0,6.0,18,0.00,,,0.00,Wunderground v.1.15,2013-10-24 20:31:00,
2013-10-24 13:36:00,84.3,33.2,29.84,West,259,4.0,6.0,16,0.00,,,0.00,Wunderground v.1.15,2013-10-24 20:36:00,
2013-10-24 13:41:00,84.3,33.2,29.84,West,262,7.0,8.0,16,0.00,,,0.00,Wunderground v.1.15,2013-10-24 20:41:00,
2013-10-24 13:46:00,84.2,36.1,29.84,West,264,4.0,8.0,18,0.00,,,0.00,Wunderground v.1.15,2013-10-24 20:46:00,
2013-10-24 13:51:00,84.5,34.9,29.84,West,267,4.0,6.0,17,0.00,,,0.00,Wunderground v.1.15,2013-10-24 20:51:00,
2013-10-24 13:56:00,84.7,36.5,29.84,West,262,4.0,7.0,18,0.00,,,0.00,Wunderground v.1.15,2013-10-24 20:56:00,
2013-10-24 14:01:00,84.8,35.1,29.83,WSW,245,4.0,5.0,17,0.00,,,0.00,Wunderground v.1.15,2013-10-24 21:01:00,
2013-10-24 14:06:00,85.3,35.5,29.83,West,269,3.0,5.0,17,0.00,,,0.00,Wunderground v.1.15,2013-10-24 21:06:00,
2013-10-24 14:11:00,85.9,40.2,29.83,West,265,4.0,6.0,20,0.00,,,0.00,Wunderground v.1.15,2013-10-24 21:11:00,
2013-10-24 14:16:00,85.7,34.3,29.83,West,259,3.0,7.0,16,0.00,,,0.00,Wunderground v.1.15,2013-10-24 21:16:00,
2013-10-24 14:21:00,85.9,37.5,29.83,West,279,2.0,6.0,18,0.00,,,0.00,Wunderground v.1.15,2013-10-24 21:21:00,
2013-10-24 14:26:00,85.9,32.9,29.83,West,277,3.0,6.0,15,0.00,,,0.00,Wunderground v.1.15,2013-10-24 21:26:00,
2013-10-24 14:31:00,86.0,33.0,29.83,West,260,3.0,4.0,15,0.00,,,0.00,Wunderground v.1.15,2013-10-24 21:31:00,
2013-10-24 14:36:00,86.3,34.8,29.83,West,259,5.0,5.0,16,0.00,,,0.00,Wunderground v.1.15,2013-10-24 21:36:00,
2013-10-24 14:41:00,86.4,29.7,29.83,WSW,252,2.0,3.0,13,0.00,,,0.00,Wunderground v.1.15,2013-10-24 21:41:00,
2013-10-24 14:46:00,86.8,39.6,29.83,West,271,3.0,5.0,19,0.00,,,0.00,Wunderground v.1.15,2013-10-24 21:46:00,
2013-10-24 14:51:00,86.9,36.8,29.83,WNW,283,2.0,4.0,17,0.00,,,0.00,Wunderground v.1.15,2013-10-24 21:51:00,
2013-10-24 14:56:00,86.8,39.6,29.82,WNW,291,1.0,4.0,19,0.00,,,0.00,Wunderground v.1.15,2013-10-24 21:56:00,
2013-10-24 15:01:00,86.7,38.1,29.82,WNW,294,4.0,5.0,18,0.00,,,0.00,Wunderground v.1.15,2013-10-24 22:01:00,
2013-10-24 15:06:00,86.6,42.0,29.82,WNW,296,2.0,5.0,21,0.00,,,0.00,Wunderground v.1.15,2013-10-24 22:06:00,
2013-10-24 15:11:00,86.9,39.7,29.82,WNW,295,1.0,4.0,19,0.00,,,0.00,Wunderground v.1.15,2013-10-24 22:11:00,
2013-10-24 15:16:00,86.8,38.2,29.82,WNW,290,2.0,5.0,18,0.00,,,0.00,Wunderground v.1.15,2013-10-24 22:16:00,
2013-10-24 15:21:00,87.0,39.7,29.82,NW,310,2.0,4.0,19,0.00,,,0.00,Wunderground v.1.15,2013-10-24 22:21:00,
2013-10-24 15:26:00,87.1,39.8,29.82,West,277,2.0,4.0,19,0.00,,,0.00,Wunderground v.1.15,2013-10-24 22:26:00,
2013-10-24 15:31:00,87.0,38.4,29.82,West,259,3.0,4.0,18,0.00,,,0.00,Wunderground v.1.15,2013-10-24 22:31:00,
2013-10-24 15:36:00,87.1,43.6,29.82,West,280,1.0,4.0,22,0.00,,,0.00,Wunderground v.1.15,2013-10-24 22:36:00,
2013-10-24 15:41:00,87.3,42.6,29.82,West,276,3.0,4.0,21,0.00,,,0.00,Wunderground v.1.15,2013-10-24 22:41:00,
2013-10-24 15:46:00,87.0,42.3,29.82,West,280,3.0,5.0,21,0.00,,,0.00,Wunderground v.1.15,2013-10-24 22:46:00,
2013-10-24 15:51:00,86.8,42.2,29.82,West,270,2.0,4.0,21,0.00,,,0.00,Wunderground v.1.15,2013-10-24 22:51:00,
2013-10-24 15:56:00,86.8,45.7,29.82,West,278,3.0,4.0,24,0.00,,,0.00,Wunderground v.1.15,2013-10-24 22:56:00,
2013-10-24 16:01:00,86.7,45.6,29.82,WNW,287,2.0,3.0,24,0.00,,,0.00,Wunderground v.1.15,2013-10-24 23:01:00,
2013-10-24 16:07:00,86.8,43.4,29.82,WNW,287,2.0,4.0,22,0.00,,,0.00,Wunderground v.1.15,2013-10-24 23:07:00,
2013-10-24 16:12:00,86.9,45.8,29.82,West,281,4.0,4.0,24,0.00,,,0.00,Wunderground v.1.15,2013-10-24 23:12:00,
2013-10-24 16:17:00,86.4,45.3,29.82,West,278,4.0,5.0,24,0.00,,,0.00,Wunderground v.1.15,2013-10-24 23:17:00,
2013-10-24 16:22:00,86.0,48.1,29.82,West,281,2.0,4.0,27,0.00,,,0.00,Wunderground v.1.15,2013-10-24 23:22:00,
2013-10-24 16:27:00,85.7,47.9,29.82,WNW,294,3.0,5.0,27,0.00,,,0.00,Wunderground v.1.15,2013-10-24 23:27:00,
2013-10-24 16:32:00,85.5,44.6,29.82,West,276,3.0,4.0,24,0.00,,,0.00,Wunderground v.1.15,2013-10-24 23:32:00,
2013-10-24 16:37:00,85.4,45.6,29.82,WNW,290,2.0,4.0,25,0.00,,,0.00,Wunderground v.1.15,2013-10-24 23:37:00,
2013-10-24 16:42:00,85.4,47.6,29.82,West,278,2.0,2.0,27,0.00,,,0.00,Wunderground v.1.15,2013-10-24 23:42:00,
2013-10-24 16:47:00,85.8,45.9,29.82,West,273,0.0,2.0,25,0.00,,,0.00,Wunderground v.1.15,2013-10-24 23:47:00,
2013-10-24 16:52:00,86.1,45.1,29.82,WNW,283,0.0,2.0,24,0.00,,,0.00,Wunderground v.1.15,2013-10-24 23:52:00,
2013-10-24 16:57:00,86.5,46.5,29.82,WNW,291,0.0,2.0,25,0.00,,,0.00,Wunderground v.1.15,2013-10-24 23:57:00,
2013-10-24 17:02:00,86.9,43.5,29.82,WNW,289,0.0,1.0,22,0.00,,,0.00,Wunderground v.1.15,2013-10-25 00:02:00,
2013-10-24 17:07:00,87.0,43.6,29.82,WNW,289,0.0,1.0,22,0.00,,,0.00,Wunderground v.1.15,2013-10-25 00:07:00,
2013-10-24 17:12:00,86.7,40.8,29.82,WNW,290,0.0,0.0,20,0.00,,,0.00,Wunderground v.1.15,2013-10-25 00:12:00,
2013-10-24 17:17:00,86.7,38.1,29.82,WNW,290,0.0,0.0,18,0.00,,,0.00,Wunderground v.1.15,2013-10-25 00:17:00,
2013-10-24 17:22:00,86.9,36.8,29.82,WNW,290,0.0,0.0,17,0.00,,,0.00,Wunderground v.1.15,2013-10-25 00:22:00,
2013-10-24 17:27:00,87.6,35.9,29.82,WNW,290,0.0,0.0,16,0.00,,,0.00,Wunderground v.1.15,2013-10-25 00:27:00,
2013-10-24 17:32:00,88.7,35.1,29.83,WNW,285,0.0,0.0,15,0.00,,,0.00,Wunderground v.1.15,2013-10-25 00:32:00,
2013-10-24 17:37:00,88.7,35.1,29.83,WNW,284,0.0,0.0,15,0.00,,,0.00,Wunderground v.1.15,2013-10-25 00:37:00,
2013-10-24 17:42:00,88.1,32.9,29.83,WNW,284,0.0,0.0,14,0.00,,,0.00,Wunderground v.1.15,2013-10-25 00:42:00,
2013-10-24 17:47:00,86.7,33.5,29.83,WNW,283,0.0,0.0,15,0.00,,,0.00,Wunderground v.1.15,2013-10-25 00:47:00,
2013-10-24 17:52:00,85.1,33.8,29.83,WNW,284,0.0,0.0,16,0.00,,,0.00,Wunderground v.1.15,2013-10-25 00:52:00,
2013-10-24 17:57:00,83.7,34.2,29.83,WSW,254,0.0,0.0,17,0.00,,,0.00,Wunderground v.1.15,2013-10-25 00:57:00,
2013-10-24 18:02:00,82.4,33.2,29.83,WSW,252,0.0,0.0,17,0.00,,,0.00,Wunderground v.1.15,2013-10-25 01:02:00,
2013-10-24 18:07:00,81.2,36.3,29.83,ESE,122,0.0,1.0,20,0.00,,,0.00,Wunderground v.1.15,2013-10-25 01:07:00,
2013-10-24 18:12:00,80.4,35.6,29.83,ESE,122,0.0,0.0,20,0.00,,,0.00,Wunderground v.1.15,2013-10-25 01:12:00,
2013-10-24 18:17:00,79.9,33.9,29.83,ESE,115,0.0,1.0,19,0.00,,,0.00,Wunderground v.1.15,2013-10-25 01:17:00,
2013-10-24 18:22:00,79.9,32.6,29.83,ESE,113,0.0,0.0,18,0.00,,,0.00,Wunderground v.1.15,2013-10-25 01:22:00,
2013-10-24 18:27:00,77.8,38.1,29.84,NNW,342,1.0,1.0,24,0.00,,,0.00,Wunderground v.1.15,2013-10-25 01:27:00,
2013-10-24 18:32:00,76.2,34.6,29.84,NNW,342,0.0,1.0,22,0.00,,,0.00,Wunderground v.1.15,2013-10-25 01:32:00,
2013-10-24 18:37:00,76.1,34.5,29.84,East,88,1.0,1.0,22,0.00,,,0.00,Wunderground v.1.15,2013-10-25 01:37:00,
2013-10-24 18:42:00,76.3,33.5,29.84,ENE,65,0.0,2.0,21,0.00,,,0.00,Wunderground v.1.15,2013-10-25 01:42:00,
2013-10-24 18:47:00,76.8,32.7,29.84,ENE,73,0.0,2.0,20,0.00,,,0.00,Wunderground v.1.15,2013-10-25 01:47:00,
2013-10-24 18:52:00,76.9,32.8,29.84,ESE,110,1.0,1.0,20,0.00,,,0.00,Wunderground v.1.15,2013-10-25 01:52:00,
2013-10-24 18:57:00,76.7,33.8,29.84,ESE,116,1.0,2.0,21,0.00,,,0.00,Wunderground v.1.15,2013-10-25 01:57:00,
2013-10-24 19:02:00,76.5,33.6,29.84,ESE,113,1.0,1.0,21,0.00,,,0.00,Wunderground v.1.15,2013-10-25 02:02:00,
2013-10-24 19:07:00,76.1,33.3,29.85,ESE,120,1.0,1.0,21,0.00,,,0.00,Wunderground v.1.15,2013-10-25 02:07:00,
2013-10-24 19:12:00,75.8,33.1,29.85,East,96,1.0,1.0,21,0.00,,,0.00,Wunderground v.1.15,2013-10-25 02:12:00,
2013-10-24 19:17:00,75.7,33.0,29.85,ESE,120,2.0,3.0,21,0.00,,,0.00,Wunderground v.1.15,2013-10-25 02:17:00,
2013-10-24 19:22:00,75.6,32.9,29.85,ESE,112,1.0,3.0,21,0.00,,,0.00,Wunderground v.1.15,2013-10-25 02:22:00,
2013-10-24 19:27:00,75.2,32.6,29.85,ESE,117,1.0,3.0,21,0.00,,,0.00,Wunderground v.1.15,2013-10-25 02:27:00,
2013-10-24 19:32:00,74.6,32.1,29.85,ESE,114,1.0,1.0,21,0.00,,,0.00,Wunderground v.1.15,2013-10-25 02:32:00,
2013-10-24 19:37:00,74.0,31.6,29.86,ESE,112,2.0,2.0,21,0.00,,,0.00,Wunderground v.1.15,2013-10-25 02:37:00,
2013-10-24 19:42:00,73.9,31.5,29.86,ESE,113,1.0,2.0,21,0.00,,,0.00,Wunderground v.1.15,2013-10-25 02:42:00,
2013-10-24 19:48:00,73.6,32.4,29.86,ENE,75,0.0,2.0,22,0.00,,,0.00,Wunderground v.1.15,2013-10-25 02:48:00,
2013-10-24 19:53:00,72.6,32.7,29.86,ENE,69,0.0,1.0,23,0.00,,,0.00,Wunderground v.1.15,2013-10-25 02:53:00,
2013-10-24 19:58:00,71.9,32.1,29.86,ENE,69,0.0,1.0,23,0.00,,,0.00,Wunderground v.1.15,2013-10-25 02:58:00,
2013-10-24 20:03:00,71.4,31.6,29.86,ESE,113,0.0,0.0,23,0.00,,,0.00,Wunderground v.1.15,2013-10-25 03:03:00,
2013-10-24 20:08:00,71.1,36.3,29.86,SW,224,2.0,4.0,28,0.00,,,0.00,Wunderground v.1.15,2013-10-25 03:08:00,
2013-10-24 20:13:00,70.1,32.6,29.86,East,96,0.0,0.0,25,0.00,,,0.00,Wunderground v.1.15,2013-10-25 03:13:00,
2013-10-24 20:18:00,69.3,34.8,29.87,West,280,1.0,1.0,28,0.00,,,0.00,Wunderground v.1.15,2013-10-25 03:18:00,
2013-10-24 20:23:00,68.1,36.3,29.87,WSW,244,0.0,1.0,31,0.00,,,0.00,Wunderground v.1.15,2013-10-25 03:23:00,
2013-10-24 20:28:00,68.1,36.3,29.87,WSW,243,0.0,1.0,31,0.00,,,0.00,Wunderground v.1.15,2013-10-25 03:28:00,
2013-10-24 20:33:00,68.2,37.2,29.87,SW,225,0.0,0.0,32,0.00,,,0.00,Wunderground v.1.15,2013-10-25 03:33:00,
2013-10-24 20:38:00,68.6,36.7,29.87,SSE,150,0.0,0.0,31,0.00,,,0.00,Wunderground v.1.15,2013-10-25 03:38:00,
2013-10-24 20:43:00,69.4,35.7,29.87,ESE,114,0.0,1.0,29,0.00,,,0.00,Wunderground v.1.15,2013-10-25 03:43:00,
2013-10-24 20:48:00,69.8,33.3,29.88,ESE,113,0.0,1.0,26,0.00,,,0.00,Wunderground v.1.15,2013-10-25 03:48:00,
2013-10-24 20:53:00,69.4,32.0,29.88,ESE,113,1.0,1.0,25,0.00,,,0.00,Wunderground v.1.15,2013-10-25 03:53:00,
2013-10-24 20:58:00,69.6,31.2,29.88,ESE,113,1.0,2.0,24,0.00,,,0.00,Wunderground v.1.15,2013-10-25 03:58:00,
2013-10-24 21:01:00,69.9,30.4,29.88,East,98,0.0,1.0,23,0.00,,,0.00,Wunderground v.1.15,2013-10-25 04:01:00,
2013-10-24 21:06:00,69.9,30.4,29.88,ESE,107,3.0,3.0,23,0.00,,,0.00,Wunderground v.1.15,2013-10-25 04:06:00,
2013-10-24 21:11:00,70.8,30.0,29.88,ESE,104,2.0,3.0,22,0.00,,,0.00,Wunderground v.1.15,2013-10-25 04:11:00,
2013-10-24 21:16:00,70.0,33.5,29.89,WSW,245,2.0,8.0,26,0.00,,,0.00,Wunderground v.1.15,2013-10-25 04:16:00,
2013-10-24 21:21:00,68.6,35.9,29.89,SE,138,0.0,2.0,30,0.00,,,0.00,Wunderground v.1.15,2013-10-25 04:21:00,
2013-10-24 21:26:00,67.5,37.4,29.89,SSW,212,0.0,2.0,33,0.00,,,0.00,Wunderground v.1.15,2013-10-25 04:26:00,
2013-10-24 21:31:00,66.6,38.1,29.90,SSW,212,0.0,0.0,35,0.00,,,0.00,Wunderground v.1.15,2013-10-25 04:31:00,
2013-10-24 21:36:00,65.9,36.7,29.90,SSW,212,0.0,0.0,34,0.00,,,0.00,Wunderground v.1.15,2013-10-25 04:36:00,
2013-10-24 21:41:00,66.0,34.5,29.90,SSW,212,0.0,0.0,31,0.00,,,0.00,Wunderground v.1.15,2013-10-25 04:41:00,
2013-10-24 21:46:00,66.5,34.9,29.90,ESE,104,2.0,2.0,31,0.00,,,0.00,Wunderground v.1.15,2013-10-25 04:46:00,
2013-10-24 21:51:00,67.7,35.1,29.90,ESE,104,0.0,1.0,30,0.00,,,0.00,Wunderground v.1.15,2013-10-25 04:51:00,
2013-10-24 21:56:00,68.1,34.6,29.90,ESE,105,0.0,1.0,29,0.00,,,0.00,Wunderground v.1.15,2013-10-25 04:56:00,
2013-10-24 22:01:00,67.9,35.3,29.90,ESE,104,0.0,0.0,30,0.00,,,0.00,Wunderground v.1.15,2013-10-25 05:01:00,
2013-10-24 22:06:00,67.2,33.8,29.90,ESE,105,0.0,1.0,29,0.00,,,0.00,Wunderground v.1.15,2013-10-25 05:06:00,
2013-10-24 22:11:00,67.4,32.2,29.90,ESE,109,0.0,1.0,27,0.00,,,0.00,Wunderground v.1.15,2013-10-25 05:11:00,
2013-10-24 22:17:00,67.9,30.8,29.90,ESE,109,1.0,3.0,25,0.00,,,0.00,Wunderground v.1.15,2013-10-25 05:17:00,
2013-10-24 22:22:00,68.1,30.9,29.90,ESE,119,1.0,2.0,25,0.00,,,0.00,Wunderground v.1.15,2013-10-25 05:22:00,
2013-10-24 22:27:00,68.3,30.1,29.90,ESE,112,2.0,4.0,24,0.00,,,0.00,Wunderground v.1.15,2013-10-25 05:27:00,
2013-10-24 22:32:00,68.6,30.3,29.90,ESE,103,1.0,5.0,24,0.00,,,0.00,Wunderground v.1.15,2013-10-25 05:32:00,
2013-10-24 22:37:00,68.9,29.5,29.90,ESE,115,1.0,5.0,23,0.00,,,0.00,Wunderground v.1.15,2013-10-25 05:37:00,
2013-10-24 22:42:00,69.2,29.8,29.90,ESE,110,1.0,3.0,23,0.00,,,0.00,Wunderground v.1.15,2013-10-25 05:42:00,
2013-10-24 22:47:00,69.5,30.0,29.90,ESE,113,1.0,4.0,23,0.00,,,0.00,Wunderground v.1.15,2013-10-25 05:47:00,
2013-10-24 22:52:00,69.8,30.3,29.90,ESE,112,1.0,3.0,23,0.00,,,0.00,Wunderground v.1.15,2013-10-25 05:52:00,
2013-10-24 22:57:00,69.9,30.4,29.90,ESE,110,1.0,4.0,23,0.00,,,0.00,Wunderground v.1.15,2013-10-25 05:57:00,
2013-10-24 23:02:00,69.2,35.6,29.90,West,274,1.0,1.0,29,0.00,,,0.00,Wunderground v.1.15,2013-10-25 06:02:00,
2013-10-24 23:07:00,66.7,32.5,29.91,WSW,245,0.0,2.0,28,0.00,,,0.00,Wunderground v.1.15,2013-10-25 06:07:00,
2013-10-24 23:12:00,66.3,34.7,29.90,WSW,240,0.0,1.0,31,0.00,,,0.00,Wunderground v.1.15,2013-10-25 06:12:00,
2013-10-24 23:17:00,65.8,37.4,29.91,West,266,0.0,1.0,35,0.00,,,0.00,Wunderground v.1.15,2013-10-25 06:17:00,
2013-10-24 23:22:00,63.9,39.7,29.91,WNW,292,0.0,2.0,41,0.00,,,0.00,Wunderground v.1.15,2013-10-25 06:22:00,
2013-10-24 23:27:00,62.6,37.3,29.91,West,281,0.0,2.0,39,0.00,,,0.00,Wunderground v.1.15,2013-10-25 06:27:00,
2013-10-24 23:32:00,63.0,37.6,29.91,West,281,0.0,1.0,39,0.00,,,0.00,Wunderground v.1.15,2013-10-25 06:32:00,
2013-10-24 23:37:00,63.2,37.2,29.91,West,281,0.0,1.0,38,0.00,,,0.00,Wunderground v.1.15,2013-10-25 06:37:00,
2013-10-24 23:42:00,63.4,37.3,29.91,West,281,0.0,0.0,38,0.00,,,0.00,Wunderground v.1.15,2013-10-25 06:42:00,
2013-10-24 23:47:00,63.3,37.2,29.91,West,281,0.0,0.0,38,0.00,,,0.00,Wunderground v.1.15,2013-10-25 06:47:00,
2013-10-24 23:52:00,63.5,36.0,29.91,West,281,0.0,0.0,36,0.00,,,0.00,Wunderground v.1.15,2013-10-25 06:52:00,
2013-10-24 23:57:00,63.9,36.4,29.91,West,281,0.0,1.0,36,0.00,,,0.00,Wunderground v.1.15,2013-10-25 06:57:00,